sensor_id;sensor_type;location;lat;lon;timestamp;P1;durP1;ratioP1;P2;durP2;ratioP2
11034;SDS011;5571;48.110;-1.706;2023-05-18T00:01:17;13.00;;;6.10;;
11034;SDS011;5571;48.110;-1.706;2023-05-18T00:03:43;9.80;;;5.80;;
11034;SDS011;5571;48.110;-1.706;2023-05-18T00:06:09;9.03;;;6.13;;
11034;SDS011;5571;48.110;-1.706;2023-05-18T00:08:35;14.27;;;6.13;;
11034;SDS011;5571;48.110;-1.706;2023-05-18T00:11:02;8.60;;;6.07;;
11034;SDS011;5571;48.110;-1.706;2023-05-18T00:13:28;10.40;;;6.00;;
11034;SDS011;5571;48.110;-1.706;2023-05-18T00:15:54;11.23;;;5.60;;
11034;SDS011;5571;48.110;-1.706;2023-05-18T00:18:20;11.67;;;5.37;;
11034;SDS011;5571;48.110;-1.706;2023-05-18T00:20:49;9.13;;;4.90;;
11034;SDS011;5571;48.110;-1.706;2023-05-18T00:23:15;9.87;;;5.10;;
11034;SDS011;5571;48.110;-1.706;2023-05-18T00:25:41;9.73;;;5.27;;
11034;SDS011;5571;48.110;-1.706;2023-05-18T00:28:06;8.77;;;5.40;;
11034;SDS011;5571;48.110;-1.706;2023-05-18T00:30:33;9.17;;;5.33;;
11034;SDS011;5571;48.110;-1.706;2023-05-18T00:32:58;8.43;;;5.03;;
11034;SDS011;5571;48.110;-1.706;2023-05-18T00:35:24;10.93;;;5.60;;
11034;SDS011;5571;48.110;-1.706;2023-05-18T00:37:50;9.80;;;4.97;;
11034;SDS011;5571;48.110;-1.706;2023-05-18T00:40:15;9.13;;;5.20;;
11034;SDS011;5571;48.110;-1.706;2023-05-18T00:42:41;9.77;;;5.23;;
11034;SDS011;5571;48.110;-1.706;2023-05-18T00:45:07;11.70;;;6.00;;
11034;SDS011;5571;48.110;-1.706;2023-05-18T00:47:32;8.70;;;5.80;;
11034;SDS011;5571;48.110;-1.706;2023-05-18T00:49:58;8.20;;;5.33;;
11034;SDS011;5571;48.110;-1.706;2023-05-18T00:52:24;9.70;;;5.50;;
11034;SDS011;5571;48.110;-1.706;2023-05-18T00:54:51;8.23;;;5.63;;
11034;SDS011;5571;48.110;-1.706;2023-05-18T00:57:17;8.80;;;5.50;;
11034;SDS011;5571;48.110;-1.706;2023-05-18T00:59:44;7.50;;;5.27;;
11034;SDS011;5571;48.110;-1.706;2023-05-18T01:02:11;8.47;;;5.77;;
11034;SDS011;5571;48.110;-1.706;2023-05-18T01:04:38;6.57;;;5.53;;
11034;SDS011;5571;48.110;-1.706;2023-05-18T01:07:05;9.87;;;5.70;;
11034;SDS011;5571;48.110;-1.706;2023-05-18T01:09:31;8.77;;;5.23;;
11034;SDS011;5571;48.110;-1.706;2023-05-18T01:14:24;11.40;;;5.70;;
11034;SDS011;5571;48.110;-1.706;2023-05-18T01:22:43;6.33;;;4.97;;
11034;SDS011;5571;48.110;-1.706;2023-05-18T01:25:20;8.63;;;5.40;;
11034;SDS011;5571;48.110;-1.706;2023-05-18T01:28:15;7.83;;;5.20;;
11034;SDS011;5571;48.110;-1.706;2023-05-18T01:30:43;8.70;;;5.00;;
11034;SDS011;5571;48.110;-1.706;2023-05-18T01:33:10;8.90;;;5.50;;
11034;SDS011;5571;48.110;-1.706;2023-05-18T01:35:37;10.97;;;5.00;;
11034;SDS011;5571;48.110;-1.706;2023-05-18T01:38:11;7.67;;;5.37;;
11034;SDS011;5571;48.110;-1.706;2023-05-18T01:40:44;8.47;;;5.43;;
11034;SDS011;5571;48.110;-1.706;2023-05-18T01:43:15;10.63;;;5.77;;
11034;SDS011;5571;48.110;-1.706;2023-05-18T01:45:44;7.63;;;5.37;;
11034;SDS011;5571;48.110;-1.706;2023-05-18T01:48:14;11.63;;;5.97;;
11034;SDS011;5571;48.110;-1.706;2023-05-18T01:50:45;12.03;;;5.50;;
11034;SDS011;5571;48.110;-1.706;2023-05-18T01:53:20;7.53;;;5.40;;
11034;SDS011;5571;48.110;-1.706;2023-05-18T01:55:56;8.27;;;5.43;;
11034;SDS011;5571;48.110;-1.706;2023-05-18T01:58:23;9.00;;;5.27;;
11034;SDS011;5571;48.110;-1.706;2023-05-18T02:00:50;10.90;;;5.57;;
11034;SDS011;5571;48.110;-1.706;2023-05-18T02:03:16;8.83;;;5.00;;
11034;SDS011;5571;48.110;-1.706;2023-05-18T02:05:41;11.87;;;6.27;;
11034;SDS011;5571;48.110;-1.706;2023-05-18T02:08:07;10.93;;;5.33;;
11034;SDS011;5571;48.110;-1.706;2023-05-18T02:10:33;10.00;;;6.77;;
11034;SDS011;5571;48.110;-1.706;2023-05-18T02:12:58;8.87;;;6.77;;
11034;SDS011;5571;48.110;-1.706;2023-05-18T02:15:24;10.07;;;6.93;;
11034;SDS011;5571;48.110;-1.706;2023-05-18T02:17:50;7.13;;;5.60;;
11034;SDS011;5571;48.110;-1.706;2023-05-18T02:20:15;7.67;;;5.67;;
11034;SDS011;5571;48.110;-1.706;2023-05-18T02:22:42;7.53;;;5.30;;
11034;SDS011;5571;48.110;-1.706;2023-05-18T02:25:08;8.17;;;5.40;;
11034;SDS011;5571;48.110;-1.706;2023-05-18T02:27:34;9.93;;;5.57;;
11034;SDS011;5571;48.110;-1.706;2023-05-18T02:30:01;10.77;;;5.60;;
11034;SDS011;5571;48.110;-1.706;2023-05-18T02:32:29;12.60;;;5.83;;
11034;SDS011;5571;48.110;-1.706;2023-05-18T02:34:56;12.37;;;5.90;;
11034;SDS011;5571;48.110;-1.706;2023-05-18T02:37:26;11.70;;;5.17;;
11034;SDS011;5571;48.110;-1.706;2023-05-18T02:39:52;10.43;;;5.57;;
11034;SDS011;5571;48.110;-1.706;2023-05-18T02:42:17;10.47;;;5.07;;
11034;SDS011;5571;48.110;-1.706;2023-05-18T02:44:43;10.30;;;5.73;;
11034;SDS011;5571;48.110;-1.706;2023-05-18T02:47:08;8.70;;;5.40;;
11034;SDS011;5571;48.110;-1.706;2023-05-18T02:49:34;13.33;;;5.40;;
11034;SDS011;5571;48.110;-1.706;2023-05-18T02:52:00;8.17;;;5.23;;
11034;SDS011;5571;48.110;-1.706;2023-05-18T02:54:25;8.53;;;5.40;;
11034;SDS011;5571;48.110;-1.706;2023-05-18T02:56:51;8.83;;;5.20;;
11034;SDS011;5571;48.110;-1.706;2023-05-18T02:59:20;12.77;;;5.47;;
11034;SDS011;5571;48.110;-1.706;2023-05-18T03:01:46;12.20;;;5.43;;
11034;SDS011;5571;48.110;-1.706;2023-05-18T03:04:12;12.77;;;6.07;;
11034;SDS011;5571;48.110;-1.706;2023-05-18T03:06:38;11.00;;;5.47;;
11034;SDS011;5571;48.110;-1.706;2023-05-18T03:09:04;12.70;;;6.00;;
11034;SDS011;5571;48.110;-1.706;2023-05-18T03:11:30;12.93;;;6.20;;
11034;SDS011;5571;48.110;-1.706;2023-05-18T03:13:55;12.87;;;5.93;;
11034;SDS011;5571;48.110;-1.706;2023-05-18T03:16:21;12.47;;;5.57;;
11034;SDS011;5571;48.110;-1.706;2023-05-18T03:18:55;10.57;;;5.57;;
11034;SDS011;5571;48.110;-1.706;2023-05-18T03:21:22;14.20;;;5.83;;
11034;SDS011;5571;48.110;-1.706;2023-05-18T03:23:48;12.97;;;6.03;;
11034;SDS011;5571;48.110;-1.706;2023-05-18T03:26:14;12.93;;;5.60;;
11034;SDS011;5571;48.110;-1.706;2023-05-18T03:28:40;10.93;;;5.33;;
11034;SDS011;5571;48.110;-1.706;2023-05-18T03:31:06;13.03;;;6.00;;
11034;SDS011;5571;48.110;-1.706;2023-05-18T03:33:32;11.87;;;5.77;;
11034;SDS011;5571;48.110;-1.706;2023-05-18T03:36:02;14.10;;;5.87;;
11034;SDS011;5571;48.110;-1.706;2023-05-18T03:38:28;15.03;;;6.00;;
11034;SDS011;5571;48.110;-1.706;2023-05-18T03:40:54;11.30;;;5.37;;
11034;SDS011;5571;48.110;-1.706;2023-05-18T03:43:20;13.67;;;5.33;;
11034;SDS011;5571;48.110;-1.706;2023-05-18T03:45:49;9.70;;;5.20;;
11034;SDS011;5571;48.110;-1.706;2023-05-18T03:48:15;14.80;;;5.93;;
11034;SDS011;5571;48.110;-1.706;2023-05-18T03:50:41;12.23;;;5.60;;
11034;SDS011;5571;48.110;-1.706;2023-05-18T03:53:07;10.37;;;5.50;;
11034;SDS011;5571;48.110;-1.706;2023-05-18T03:55:33;9.80;;;5.50;;
11034;SDS011;5571;48.110;-1.706;2023-05-18T03:57:59;9.93;;;5.10;;
11034;SDS011;5571;48.110;-1.706;2023-05-18T04:00:25;11.20;;;5.27;;
11034;SDS011;5571;48.110;-1.706;2023-05-18T04:02:51;13.00;;;5.33;;
11034;SDS011;5571;48.110;-1.706;2023-05-18T04:05:16;9.43;;;4.93;;
11034;SDS011;5571;48.110;-1.706;2023-05-18T04:07:42;11.60;;;5.27;;
11034;SDS011;5571;48.110;-1.706;2023-05-18T04:10:10;8.67;;;5.23;;
11034;SDS011;5571;48.110;-1.706;2023-05-18T04:12:37;9.40;;;5.17;;
11034;SDS011;5571;48.110;-1.706;2023-05-18T04:15:03;8.03;;;4.57;;
11034;SDS011;5571;48.110;-1.706;2023-05-18T04:17:29;7.77;;;4.77;;
11034;SDS011;5571;48.110;-1.706;2023-05-18T04:19:55;9.27;;;4.93;;
11034;SDS011;5571;48.110;-1.706;2023-05-18T04:22:20;9.67;;;4.57;;
11034;SDS011;5571;48.110;-1.706;2023-05-18T04:24:46;9.53;;;5.50;;
11034;SDS011;5571;48.110;-1.706;2023-05-18T04:27:12;12.37;;;5.73;;
11034;SDS011;5571;48.110;-1.706;2023-05-18T04:29:38;10.70;;;5.27;;
11034;SDS011;5571;48.110;-1.706;2023-05-18T04:32:07;13.53;;;5.70;;
11034;SDS011;5571;48.110;-1.706;2023-05-18T04:34:34;10.70;;;5.43;;
11034;SDS011;5571;48.110;-1.706;2023-05-18T04:37:01;9.87;;;5.80;;
11034;SDS011;5571;48.110;-1.706;2023-05-18T04:39:29;12.67;;;5.73;;
11034;SDS011;5571;48.110;-1.706;2023-05-18T04:41:56;13.00;;;6.17;;
11034;SDS011;5571;48.110;-1.706;2023-05-18T04:44:23;9.60;;;5.03;;
11034;SDS011;5571;48.110;-1.706;2023-05-18T04:46:51;12.80;;;5.17;;
11034;SDS011;5571;48.110;-1.706;2023-05-18T04:49:17;9.83;;;5.30;;
11034;SDS011;5571;48.110;-1.706;2023-05-18T04:51:53;8.40;;;5.40;;
11034;SDS011;5571;48.110;-1.706;2023-05-18T04:54:21;10.57;;;4.60;;
11034;SDS011;5571;48.110;-1.706;2023-05-18T04:56:48;9.70;;;5.33;;
11034;SDS011;5571;48.110;-1.706;2023-05-18T04:59:14;10.70;;;5.37;;
11034;SDS011;5571;48.110;-1.706;2023-05-18T05:01:40;11.07;;;5.20;;
11034;SDS011;5571;48.110;-1.706;2023-05-18T05:04:05;9.33;;;5.13;;
11034;SDS011;5571;48.110;-1.706;2023-05-18T05:06:31;8.30;;;4.80;;
11034;SDS011;5571;48.110;-1.706;2023-05-18T05:08:57;10.13;;;4.67;;
11034;SDS011;5571;48.110;-1.706;2023-05-18T05:11:22;13.73;;;4.53;;
11034;SDS011;5571;48.110;-1.706;2023-05-18T05:13:48;9.53;;;4.77;;
11034;SDS011;5571;48.110;-1.706;2023-05-18T05:16:14;11.40;;;4.77;;
11034;SDS011;5571;48.110;-1.706;2023-05-18T05:18:39;8.17;;;4.67;;
11034;SDS011;5571;48.110;-1.706;2023-05-18T05:21:05;8.07;;;4.30;;
11034;SDS011;5571;48.110;-1.706;2023-05-18T05:23:30;9.03;;;4.53;;
11034;SDS011;5571;48.110;-1.706;2023-05-18T05:25:56;11.67;;;5.27;;
11034;SDS011;5571;48.110;-1.706;2023-05-18T05:28:22;8.17;;;4.23;;
11034;SDS011;5571;48.110;-1.706;2023-05-18T05:30:47;10.40;;;4.33;;
11034;SDS011;5571;48.110;-1.706;2023-05-18T05:33:13;7.27;;;4.47;;
11034;SDS011;5571;48.110;-1.706;2023-05-18T05:35:39;10.03;;;4.83;;
11034;SDS011;5571;48.110;-1.706;2023-05-18T05:38:06;9.27;;;4.60;;
11034;SDS011;5571;48.110;-1.706;2023-05-18T05:40:31;8.30;;;4.43;;
11034;SDS011;5571;48.110;-1.706;2023-05-18T05:42:57;8.47;;;4.27;;
11034;SDS011;5571;48.110;-1.706;2023-05-18T05:45:22;8.33;;;4.53;;
11034;SDS011;5571;48.110;-1.706;2023-05-18T05:47:48;7.23;;;4.00;;
11034;SDS011;5571;48.110;-1.706;2023-05-18T05:50:14;9.33;;;4.40;;
11034;SDS011;5571;48.110;-1.706;2023-05-18T05:52:40;8.33;;;5.10;;
11034;SDS011;5571;48.110;-1.706;2023-05-18T05:55:05;9.20;;;4.73;;
11034;SDS011;5571;48.110;-1.706;2023-05-18T05:57:31;10.87;;;4.80;;
11034;SDS011;5571;48.110;-1.706;2023-05-18T05:59:57;8.40;;;4.80;;
11034;SDS011;5571;48.110;-1.706;2023-05-18T06:02:22;8.93;;;4.60;;
11034;SDS011;5571;48.110;-1.706;2023-05-18T06:04:48;8.30;;;4.83;;
11034;SDS011;5571;48.110;-1.706;2023-05-18T06:07:13;10.27;;;4.40;;
11034;SDS011;5571;48.110;-1.706;2023-05-18T06:09:39;10.33;;;4.60;;
11034;SDS011;5571;48.110;-1.706;2023-05-18T06:12:05;13.40;;;4.70;;
11034;SDS011;5571;48.110;-1.706;2023-05-18T06:14:31;13.27;;;4.83;;
11034;SDS011;5571;48.110;-1.706;2023-05-18T06:16:57;9.33;;;4.90;;
11034;SDS011;5571;48.110;-1.706;2023-05-18T06:19:22;7.73;;;4.37;;
11034;SDS011;5571;48.110;-1.706;2023-05-18T06:21:48;10.67;;;4.40;;
11034;SDS011;5571;48.110;-1.706;2023-05-18T06:24:13;9.50;;;4.43;;
11034;SDS011;5571;48.110;-1.706;2023-05-18T06:26:39;7.80;;;4.33;;
11034;SDS011;5571;48.110;-1.706;2023-05-18T06:29:05;9.40;;;4.70;;
11034;SDS011;5571;48.110;-1.706;2023-05-18T06:31:33;8.63;;;4.37;;
11034;SDS011;5571;48.110;-1.706;2023-05-18T06:33:58;10.20;;;4.10;;
11034;SDS011;5571;48.110;-1.706;2023-05-18T06:36:24;9.07;;;4.57;;
11034;SDS011;5571;48.110;-1.706;2023-05-18T06:38:50;8.97;;;4.57;;
11034;SDS011;5571;48.110;-1.706;2023-05-18T06:41:16;10.27;;;4.53;;
11034;SDS011;5571;48.110;-1.706;2023-05-18T06:43:41;9.03;;;4.33;;
11034;SDS011;5571;48.110;-1.706;2023-05-18T06:46:07;8.83;;;4.77;;
11034;SDS011;5571;48.110;-1.706;2023-05-18T06:48:32;8.00;;;4.10;;
11034;SDS011;5571;48.110;-1.706;2023-05-18T06:51:00;6.90;;;4.33;;
11034;SDS011;5571;48.110;-1.706;2023-05-18T06:53:26;7.10;;;4.30;;
11034;SDS011;5571;48.110;-1.706;2023-05-18T06:55:52;8.70;;;4.47;;
11034;SDS011;5571;48.110;-1.706;2023-05-18T06:58:19;9.20;;;4.67;;
11034;SDS011;5571;48.110;-1.706;2023-05-18T07:00:44;8.17;;;4.70;;
11034;SDS011;5571;48.110;-1.706;2023-05-18T07:03:10;12.43;;;5.07;;
11034;SDS011;5571;48.110;-1.706;2023-05-18T07:05:35;12.50;;;5.07;;
11034;SDS011;5571;48.110;-1.706;2023-05-18T07:08:01;7.20;;;4.50;;
11034;SDS011;5571;48.110;-1.706;2023-05-18T07:10:28;7.50;;;4.90;;
11034;SDS011;5571;48.110;-1.706;2023-05-18T07:12:54;7.77;;;4.90;;
11034;SDS011;5571;48.110;-1.706;2023-05-18T07:15:20;7.67;;;4.50;;
11034;SDS011;5571;48.110;-1.706;2023-05-18T07:17:46;7.67;;;4.13;;
11034;SDS011;5571;48.110;-1.706;2023-05-18T07:20:11;8.30;;;4.97;;
11034;SDS011;5571;48.110;-1.706;2023-05-18T07:22:37;8.43;;;4.60;;
11034;SDS011;5571;48.110;-1.706;2023-05-18T07:25:03;7.90;;;4.40;;
11034;SDS011;5571;48.110;-1.706;2023-05-18T07:27:29;8.43;;;4.13;;
11034;SDS011;5571;48.110;-1.706;2023-05-18T07:29:55;5.83;;;4.17;;
11034;SDS011;5571;48.110;-1.706;2023-05-18T07:32:21;9.47;;;4.40;;
11034;SDS011;5571;48.110;-1.706;2023-05-18T07:34:47;10.07;;;4.83;;
11034;SDS011;5571;48.110;-1.706;2023-05-18T07:37:13;9.57;;;4.93;;
11034;SDS011;5571;48.110;-1.706;2023-05-18T07:39:39;11.73;;;5.17;;
11034;SDS011;5571;48.110;-1.706;2023-05-18T07:42:05;8.83;;;4.60;;
11034;SDS011;5571;48.110;-1.706;2023-05-18T07:44:30;11.13;;;4.90;;
11034;SDS011;5571;48.110;-1.706;2023-05-18T07:46:56;9.30;;;4.80;;
11034;SDS011;5571;48.110;-1.706;2023-05-18T07:49:22;8.53;;;4.47;;
11034;SDS011;5571;48.110;-1.706;2023-05-18T07:51:48;11.53;;;4.87;;
11034;SDS011;5571;48.110;-1.706;2023-05-18T07:54:14;9.53;;;4.40;;
11034;SDS011;5571;48.110;-1.706;2023-05-18T07:56:40;8.17;;;4.10;;
11034;SDS011;5571;48.110;-1.706;2023-05-18T07:59:08;8.03;;;4.30;;
11034;SDS011;5571;48.110;-1.706;2023-05-18T08:01:34;12.30;;;4.03;;
11034;SDS011;5571;48.110;-1.706;2023-05-18T08:04:01;8.47;;;4.37;;
11034;SDS011;5571;48.110;-1.706;2023-05-18T08:06:27;8.97;;;4.37;;
11034;SDS011;5571;48.110;-1.706;2023-05-18T08:08:53;8.07;;;4.00;;
11034;SDS011;5571;48.110;-1.706;2023-05-18T08:11:20;12.40;;;4.50;;
11034;SDS011;5571;48.110;-1.706;2023-05-18T08:13:47;7.70;;;4.27;;
11034;SDS011;5571;48.110;-1.706;2023-05-18T08:16:12;10.07;;;4.00;;
11034;SDS011;5571;48.110;-1.706;2023-05-18T08:18:38;7.63;;;3.80;;
11034;SDS011;5571;48.110;-1.706;2023-05-18T08:21:04;9.97;;;4.00;;
11034;SDS011;5571;48.110;-1.706;2023-05-18T08:23:33;12.07;;;4.37;;
11034;SDS011;5571;48.110;-1.706;2023-05-18T08:25:59;12.40;;;4.37;;
11034;SDS011;5571;48.110;-1.706;2023-05-18T08:28:27;8.57;;;4.00;;
11034;SDS011;5571;48.110;-1.706;2023-05-18T08:30:53;11.17;;;4.47;;
11034;SDS011;5571;48.110;-1.706;2023-05-18T08:33:19;9.40;;;4.30;;
11034;SDS011;5571;48.110;-1.706;2023-05-18T08:35:45;10.67;;;4.40;;
11034;SDS011;5571;48.110;-1.706;2023-05-18T08:38:11;9.63;;;4.43;;
11034;SDS011;5571;48.110;-1.706;2023-05-18T08:40:41;8.20;;;3.80;;
11034;SDS011;5571;48.110;-1.706;2023-05-18T08:43:20;8.20;;;3.93;;
11034;SDS011;5571;48.110;-1.706;2023-05-18T08:45:54;8.20;;;3.73;;
11034;SDS011;5571;48.110;-1.706;2023-05-18T08:48:28;8.10;;;4.30;;
11034;SDS011;5571;48.110;-1.706;2023-05-18T08:50:56;7.03;;;3.77;;
11034;SDS011;5571;48.110;-1.706;2023-05-18T08:53:23;5.67;;;3.60;;
11034;SDS011;5571;48.110;-1.706;2023-05-18T08:55:50;6.40;;;4.30;;
11034;SDS011;5571;48.110;-1.706;2023-05-18T08:58:18;7.53;;;3.90;;
11034;SDS011;5571;48.110;-1.706;2023-05-18T09:00:48;8.33;;;3.67;;
11034;SDS011;5571;48.110;-1.706;2023-05-18T09:03:18;7.87;;;3.83;;
11034;SDS011;5571;48.110;-1.706;2023-05-18T09:05:44;11.00;;;4.40;;
11034;SDS011;5571;48.110;-1.706;2023-05-18T09:08:11;6.53;;;4.07;;
11034;SDS011;5571;48.110;-1.706;2023-05-18T09:10:37;5.17;;;3.97;;
11034;SDS011;5571;48.110;-1.706;2023-05-18T09:13:03;8.07;;;4.13;;
11034;SDS011;5571;48.110;-1.706;2023-05-18T09:15:31;11.20;;;4.63;;
11034;SDS011;5571;48.110;-1.706;2023-05-18T09:17:59;7.73;;;4.30;;
11034;SDS011;5571;48.110;-1.706;2023-05-18T09:20:24;9.70;;;4.32;;
11034;SDS011;5571;48.110;-1.706;2023-05-18T09:22:51;10.25;;;4.40;;
11034;SDS011;5571;48.110;-1.706;2023-05-18T09:25:17;6.13;;;4.22;;
11034;SDS011;5571;48.110;-1.706;2023-05-18T09:27:45;8.65;;;4.18;;
11034;SDS011;5571;48.110;-1.706;2023-05-18T09:30:12;5.53;;;4.13;;
11034;SDS011;5571;48.110;-1.706;2023-05-18T09:32:38;7.00;;;4.32;;
11034;SDS011;5571;48.110;-1.706;2023-05-18T09:35:07;7.22;;;4.05;;
11034;SDS011;5571;48.110;-1.706;2023-05-18T09:37:33;6.43;;;4.35;;
11034;SDS011;5571;48.110;-1.706;2023-05-18T09:40:00;9.50;;;4.68;;
11034;SDS011;5571;48.110;-1.706;2023-05-18T09:42:35;8.75;;;4.32;;
11034;SDS011;5571;48.110;-1.706;2023-05-18T09:45:02;9.38;;;3.97;;
11034;SDS011;5571;48.110;-1.706;2023-05-18T09:47:38;7.22;;;4.22;;
11034;SDS011;5571;48.110;-1.706;2023-05-18T09:50:04;8.88;;;4.20;;
11034;SDS011;5571;48.110;-1.706;2023-05-18T09:52:30;9.77;;;3.80;;
11034;SDS011;5571;48.110;-1.706;2023-05-18T09:55:09;7.30;;;4.22;;
11034;SDS011;5571;48.110;-1.706;2023-05-18T09:57:44;5.55;;;4.13;;
11034;SDS011;5571;48.110;-1.706;2023-05-18T10:00:15;6.82;;;4.28;;
11034;SDS011;5571;48.110;-1.706;2023-05-18T10:02:44;6.15;;;4.50;;
11034;SDS011;5571;48.110;-1.706;2023-05-18T10:07:51;10.18;;;4.70;;
11034;SDS011;5571;48.110;-1.706;2023-05-18T10:10:19;8.07;;;4.63;;
11034;SDS011;5571;48.110;-1.706;2023-05-18T10:12:46;9.70;;;4.13;;
11034;SDS011;5571;48.110;-1.706;2023-05-18T10:15:15;5.63;;;4.00;;
11034;SDS011;5571;48.110;-1.706;2023-05-18T10:17:43;9.27;;;4.18;;
11034;SDS011;5571;48.110;-1.706;2023-05-18T10:20:10;11.55;;;4.70;;
11034;SDS011;5571;48.110;-1.706;2023-05-18T10:22:39;6.15;;;3.97;;
11034;SDS011;5571;48.110;-1.706;2023-05-18T10:25:06;8.77;;;4.65;;
11034;SDS011;5571;48.110;-1.706;2023-05-18T10:27:35;7.93;;;4.32;;
11034;SDS011;5571;48.110;-1.706;2023-05-18T10:30:02;10.70;;;4.38;;
11034;SDS011;5571;48.110;-1.706;2023-05-18T10:32:32;7.55;;;4.10;;
11034;SDS011;5571;48.110;-1.706;2023-05-18T10:34:59;5.90;;;4.07;;
11034;SDS011;5571;48.110;-1.706;2023-05-18T10:37:26;8.05;;;4.40;;
11034;SDS011;5571;48.110;-1.706;2023-05-18T10:39:57;10.20;;;4.90;;
11034;SDS011;5571;48.110;-1.706;2023-05-18T10:42:25;11.82;;;5.18;;
11034;SDS011;5571;48.110;-1.706;2023-05-18T10:44:55;8.52;;;4.40;;
11034;SDS011;5571;48.110;-1.706;2023-05-18T10:47:23;9.82;;;4.82;;
11034;SDS011;5571;48.110;-1.706;2023-05-18T10:49:50;10.13;;;4.50;;
11034;SDS011;5571;48.110;-1.706;2023-05-18T10:52:16;9.60;;;4.35;;
11034;SDS011;5571;48.110;-1.706;2023-05-18T10:54:42;9.43;;;4.47;;
11034;SDS011;5571;48.110;-1.706;2023-05-18T10:57:18;8.60;;;4.40;;
11034;SDS011;5571;48.110;-1.706;2023-05-18T10:59:45;8.00;;;4.55;;
11034;SDS011;5571;48.110;-1.706;2023-05-18T11:02:11;8.48;;;4.60;;
11034;SDS011;5571;48.110;-1.706;2023-05-18T11:04:40;5.38;;;4.20;;
11034;SDS011;5571;48.110;-1.706;2023-05-18T11:07:09;7.30;;;4.60;;
11034;SDS011;5571;48.110;-1.706;2023-05-18T11:09:36;8.70;;;4.47;;
11034;SDS011;5571;48.110;-1.706;2023-05-18T11:12:09;9.63;;;4.75;;
11034;SDS011;5571;48.110;-1.706;2023-05-18T11:14:38;10.10;;;4.90;;
11034;SDS011;5571;48.110;-1.706;2023-05-18T11:17:19;8.98;;;4.82;;
11034;SDS011;5571;48.110;-1.706;2023-05-18T11:22:49;14.10;;;5.00;;
11034;SDS011;5571;48.110;-1.706;2023-05-18T11:27:59;7.80;;;4.70;;
11034;SDS011;5571;48.110;-1.706;2023-05-18T11:33:14;10.57;;;4.50;;
11034;SDS011;5571;48.110;-1.706;2023-05-18T11:35:57;7.03;;;4.95;;
11034;SDS011;5571;48.110;-1.706;2023-05-18T11:44:13;13.30;;;4.63;;
11034;SDS011;5571;48.110;-1.706;2023-05-18T11:47:28;7.80;;;4.68;;
11034;SDS011;5571;48.110;-1.706;2023-05-18T11:49:42;12.30;;;4.78;;
11034;SDS011;5571;48.110;-1.706;2023-05-18T11:52:21;8.05;;;4.88;;
11034;SDS011;5571;48.110;-1.706;2023-05-18T11:57:17;10.35;;;5.15;;
11034;SDS011;5571;48.110;-1.706;2023-05-18T11:59:57;7.97;;;4.95;;
11034;SDS011;5571;48.110;-1.706;2023-05-18T12:02:24;10.23;;;5.13;;
11034;SDS011;5571;48.110;-1.706;2023-05-18T12:04:52;11.10;;;4.78;;
11034;SDS011;5571;48.110;-1.706;2023-05-18T12:07:19;10.77;;;4.78;;
11034;SDS011;5571;48.110;-1.706;2023-05-18T12:09:46;7.90;;;4.68;;
11034;SDS011;5571;48.110;-1.706;2023-05-18T12:12:13;7.15;;;4.90;;
11034;SDS011;5571;48.110;-1.706;2023-05-18T12:14:43;8.95;;;5.00;;
11034;SDS011;5571;48.110;-1.706;2023-05-18T12:17:18;7.30;;;4.55;;
11034;SDS011;5571;48.110;-1.706;2023-05-18T12:19:45;9.68;;;4.80;;
11034;SDS011;5571;48.110;-1.706;2023-05-18T12:22:12;7.93;;;4.90;;
11034;SDS011;5571;48.110;-1.706;2023-05-18T12:24:39;10.88;;;5.35;;
11034;SDS011;5571;48.110;-1.706;2023-05-18T12:27:06;8.73;;;4.68;;
11034;SDS011;5571;48.110;-1.706;2023-05-18T12:29:33;7.45;;;4.10;;
11034;SDS011;5571;48.110;-1.706;2023-05-18T12:32:10;6.78;;;4.82;;
11034;SDS011;5571;48.110;-1.706;2023-05-18T12:34:37;7.25;;;4.63;;
11034;SDS011;5571;48.110;-1.706;2023-05-18T12:37:04;7.43;;;4.57;;
11034;SDS011;5571;48.110;-1.706;2023-05-18T12:39:31;8.00;;;4.75;;
11034;SDS011;5571;48.110;-1.706;2023-05-18T12:42:10;8.73;;;5.10;;
11034;SDS011;5571;48.110;-1.706;2023-05-18T12:44:37;5.88;;;4.55;;
11034;SDS011;5571;48.110;-1.706;2023-05-18T12:47:03;7.57;;;4.57;;
11034;SDS011;5571;48.110;-1.706;2023-05-18T12:49:34;10.82;;;5.13;;
11034;SDS011;5571;48.110;-1.706;2023-05-18T12:52:21;8.07;;;5.28;;
11034;SDS011;5571;48.110;-1.706;2023-05-18T12:54:54;9.95;;;4.90;;
11034;SDS011;5571;48.110;-1.706;2023-05-18T12:57:25;7.90;;;4.80;;
11034;SDS011;5571;48.110;-1.706;2023-05-18T12:59:52;8.73;;;4.50;;
11034;SDS011;5571;48.110;-1.706;2023-05-18T13:02:34;6.55;;;4.50;;
11034;SDS011;5571;48.110;-1.706;2023-05-18T13:05:02;8.80;;;5.03;;
11034;SDS011;5571;48.110;-1.706;2023-05-18T13:07:28;7.78;;;4.97;;
11034;SDS011;5571;48.110;-1.706;2023-05-18T13:09:53;8.68;;;4.68;;
11034;SDS011;5571;48.110;-1.706;2023-05-18T13:15:23;5.68;;;4.43;;
11034;SDS011;5571;48.110;-1.706;2023-05-18T13:18:01;7.25;;;4.85;;
11034;SDS011;5571;48.110;-1.706;2023-05-18T13:23:10;7.13;;;4.68;;
11034;SDS011;5571;48.110;-1.706;2023-05-18T13:25:37;11.55;;;5.07;;
11034;SDS011;5571;48.110;-1.706;2023-05-18T13:28:04;10.52;;;4.97;;
11034;SDS011;5571;48.110;-1.706;2023-05-18T13:30:30;10.18;;;5.32;;
11034;SDS011;5571;48.110;-1.706;2023-05-18T13:32:56;11.75;;;6.07;;
11034;SDS011;5571;48.110;-1.706;2023-05-18T13:35:23;10.90;;;6.30;;
11034;SDS011;5571;48.110;-1.706;2023-05-18T13:37:49;8.35;;;5.63;;
11034;SDS011;5571;48.110;-1.706;2023-05-18T13:40:16;6.65;;;5.07;;
11034;SDS011;5571;48.110;-1.706;2023-05-18T13:42:43;7.85;;;4.90;;
11034;SDS011;5571;48.110;-1.706;2023-05-18T13:45:10;8.40;;;4.97;;
11034;SDS011;5571;48.110;-1.706;2023-05-18T13:47:36;8.35;;;5.35;;
11034;SDS011;5571;48.110;-1.706;2023-05-18T13:50:04;8.80;;;4.97;;
11034;SDS011;5571;48.110;-1.706;2023-05-18T13:52:30;8.98;;;5.22;;
11034;SDS011;5571;48.110;-1.706;2023-05-18T13:54:56;11.05;;;6.88;;
11034;SDS011;5571;48.110;-1.706;2023-05-18T13:57:21;10.13;;;5.85;;
11034;SDS011;5571;48.110;-1.706;2023-05-18T13:59:50;10.77;;;5.22;;
11034;SDS011;5571;48.110;-1.706;2023-05-18T14:02:18;8.05;;;4.85;;
11034;SDS011;5571;48.110;-1.706;2023-05-18T14:04:44;7.20;;;4.82;;
11034;SDS011;5571;48.110;-1.706;2023-05-18T14:07:10;13.32;;;5.03;;
11034;SDS011;5571;48.110;-1.706;2023-05-18T14:09:36;10.82;;;4.78;;
11034;SDS011;5571;48.110;-1.706;2023-05-18T14:12:02;9.38;;;5.18;;
11034;SDS011;5571;48.110;-1.706;2023-05-18T14:14:29;12.10;;;5.47;;
11034;SDS011;5571;48.110;-1.706;2023-05-18T14:16:55;8.13;;;4.85;;
11034;SDS011;5571;48.110;-1.706;2023-05-18T14:19:21;8.00;;;4.90;;
11034;SDS011;5571;48.110;-1.706;2023-05-18T14:21:46;11.85;;;5.00;;
11034;SDS011;5571;48.110;-1.706;2023-05-18T14:24:12;8.43;;;4.55;;
11034;SDS011;5571;48.110;-1.706;2023-05-18T14:26:39;9.52;;;4.78;;
11034;SDS011;5571;48.110;-1.706;2023-05-18T14:29:05;9.68;;;5.25;;
11034;SDS011;5571;48.110;-1.706;2023-05-18T14:31:31;14.88;;;5.18;;
11034;SDS011;5571;48.110;-1.706;2023-05-18T14:33:56;13.57;;;5.85;;
11034;SDS011;5571;48.110;-1.706;2023-05-18T14:36:22;9.50;;;5.30;;
11034;SDS011;5571;48.110;-1.706;2023-05-18T14:38:47;12.30;;;5.13;;
11034;SDS011;5571;48.110;-1.706;2023-05-18T14:41:13;8.13;;;4.88;;
11034;SDS011;5571;48.110;-1.706;2023-05-18T14:43:39;12.73;;;5.15;;
11034;SDS011;5571;48.110;-1.706;2023-05-18T14:46:04;7.22;;;4.88;;
11034;SDS011;5571;48.110;-1.706;2023-05-18T14:48:30;11.85;;;5.25;;
11034;SDS011;5571;48.110;-1.706;2023-05-18T14:50:56;8.70;;;4.68;;
11034;SDS011;5571;48.110;-1.706;2023-05-18T14:53:21;8.52;;;4.80;;
11034;SDS011;5571;48.110;-1.706;2023-05-18T14:55:47;10.68;;;5.15;;
11034;SDS011;5571;48.110;-1.706;2023-05-18T14:58:12;8.60;;;5.22;;
11034;SDS011;5571;48.110;-1.706;2023-05-18T15:00:42;9.45;;;5.80;;
11034;SDS011;5571;48.110;-1.706;2023-05-18T15:03:08;11.20;;;5.13;;
11034;SDS011;5571;48.110;-1.706;2023-05-18T15:05:34;10.23;;;5.40;;
11034;SDS011;5571;48.110;-1.706;2023-05-18T15:08:00;13.32;;;4.70;;
11034;SDS011;5571;48.110;-1.706;2023-05-18T15:10:25;10.68;;;4.90;;
11034;SDS011;5571;48.110;-1.706;2023-05-18T15:12:51;7.20;;;4.57;;
11034;SDS011;5571;48.110;-1.706;2023-05-18T15:15:17;13.25;;;5.28;;
11034;SDS011;5571;48.110;-1.706;2023-05-18T15:17:42;8.52;;;4.78;;